Terminal Aerodrome Forecast
Issued by NWS

Home | Current Version | Previous Version | Text Only | Print | Product List | Glossary On
Versions: 1 2 3 4 5 6 7 8 9 10 11 12 13 14 15 16 17 18 19 20 21 22 23 24 25 26 27 28 29 30 31 32
000
FTUS43 KDLH 251739
TAFBRD
TAF
KBRD 251739Z 2518/2618 01005KT P6SM VCSH OVC012
     FM260500 01005KT 4SM -SHRA BR OVC008
     FM261200 36004KT 1 1/2SM -SHRA BR OVC003
     FM261500 35006KT P6SM OVC003=

USA.gov is the U.S. government's official web portal to all federal, state and local government web resources and services.